Data for 01/04/2009

Time Sea-Level Adjusted Pressure Absolute Pressure Temperature Relative Humidity Dew Point   
(mb) (inHg) (mb) (inHg) (C) (F) (%) (C) (F)
00:05 1021 30.15 850 25.1 -15.4 4.2 53 -23 -9.4
00:10 1021 30.15 850 25.1 -15.6 4 53 -23.1 -9.5
00:15 1021 30.15 850 25.1 -15.5 4.1 53 -23 -9.3
00:20 1021 30.15 850 25.1 -15.6 3.9 55 -22.7 -8.9
00:25 1021 30.15 850 25.1 -16.1 2.9 57 -22.9 -9.2
00:30 1021 30.15 850 25.1 -16.4 2.5 58 -22.9 -9.3
00:35 1021 30.15 850 25.1 -16.6 2.2 59 -22.9 -9.2
00:40 1021 30.15 850 25.1 -16.8 1.8 59 -23 -9.4
00:45 1021 30.15 850 25.1 -16.8 1.7 59 -23 -9.5
00:50 1021 30.15 850 25.1 -16.8 1.8 59 -23 -9.5
00:55 1021 30.15 850 25.1 -16.9 1.6 60 -22.9 -9.2
01:00 1021 30.15 850 25.1 -16.9 1.5 60 -23 -9.4
01:05 1021 30.15 850 25.1 -17 1.4 60 -22.9 -9.3
01:10 1021 30.15 850 25.1 -17 1.4 61 -22.8 -9.1
01:15 1021 30.15 850 25.1 -17 1.4 63 -22.5 -8.4
01:20 1021 30.15 850 25.1 -16.7 1.9 61 -22.6 -8.7
01:25 1021 30.15 850 25.1 -16.4 2.6 61 -22.3 -8.1
01:30 1021 30.15 850 25.1 -16.3 2.6 61 -22.2 -8
01:35 1021 30.15 850 25.1 -16.4 2.5 61 -22.4 -8.3
01:40 1021 30.15 850 25.1 -16.6 2.1 61 -22.6 -8.6
01:45 1021 30.15 850 25.1 -16.8 1.7 61 -22.6 -8.8
01:50 1021 30.15 850 25.1 -17.1 1.3 61 -22.8 -9.1
01:55 1021 30.15 850 25.1 -17 1.5 61 -22.9 -9.2
02:00 1021 30.15 850 25.1 -16.9 1.7 61 -22.8 -9
02:05 1021 30.15 850 25.1 -16.8 1.8 60 -22.8 -9.1
02:10 1021 30.15 850 25.1 -16.8 1.8 61 -22.7 -8.9
02:15 1021 30.15 850 25.1 -16.7 2 61 -22.6 -8.6
02:20 1021 30.15 850 25.1 -17 1.5 61 -22.8 -9
02:25 1021 30.15 850 25.1 -16.6 2.2 59 -22.9 -9.2
02:30 1021 30.15 850 25.1 -16.2 2.9 56 -23.1 -9.7
02:35 1021 30.15 850 25.1 -16 3.3 55 -23.2 -9.7
02:40 1021 30.15 851 25.13 -15.9 3.5 55 -23 -9.4
02:45 1021 30.15 851 25.13 -15.6 3.9 53 -23.1 -9.5
02:50 1021 30.15 851 25.13 -15.5 4 55 -22.8 -9
02:55 1021 30.15 851 25.13 -15.7 3.8 56 -22.5 -8.6
03:00 1021 30.15 851 25.13 -16.1 3.1 58 -22.6 -8.6
03:05 1021 30.15 851 25.13 -16.2 2.9 58 -22.7 -8.9
03:10 1021 30.15 851 25.13 -15.9 3.3 56 -22.8 -9
03:15 1021 30.15 851 25.13 -15.7 3.7 55 -22.8 -9
03:20 1021 30.15 851 25.13 -15.4 4.4 53 -22.8 -9.1
03:25 1021 30.15 851 25.13 -15.3 4.5 53 -22.9 -9.3
03:30 1021 30.15 851 25.13 -15.3 4.5 51 -23.3 -9.9
03:35 1021 30.15 851 25.13 -15.2 4.7 51 -23.2 -9.7
03:40 1021 30.15 851 25.13 -15.2 4.6 52 -23.1 -9.6
03:45 1021 30.15 851 25.13 -15.3 4.5 51 -23.2 -9.8
03:50 1021 30.15 850 25.1 -15.1 4.8 50 -23.2 -9.8
03:55 1021 30.15 850 25.1 -15 5 51 -23 -9.3
04:00 1021 30.15 850 25.1 -15.1 4.9 51 -23.1 -9.5
04:05 1021 30.15 850 25.1 -14.9 5.3 49 -23.3 -9.9
04:10 1021 30.15 850 25.1 -14.8 5.4 50 -23 -9.4
04:15 1021 30.15 850 25.1 -15.2 4.7 53 -22.8 -9.1
04:20 1021 30.15 850 25.1 -15.3 4.4 52 -23.1 -9.6
04:25 1021 30.15 850 25.1 -15.5 4.2 55 -22.6 -8.6
04:30 1021 30.15 850 25.1 -16 3.3 56 -22.9 -9.1
04:35 1021 30.15 850 25.1 -16.1 3 56 -23 -9.4
04:40 1021 30.15 850 25.1 -16 3.1 54 -23.4 -10.2
04:45 1021 30.15 850 25.1 -15.4 4.4 51 -23.4 -10.1
04:50 1021 30.15 850 25.1 -15.2 4.7 52 -23 -9.4
04:55 1021 30.15 850 25.1 -15.4 4.3 54 -22.8 -9
05:00 1021 30.15 850 25.1 -15.7 3.7 56 -22.7 -8.9
05:05 1021 30.15 850 25.1 -15.7 3.8 56 -22.5 -8.6
05:10 1021 30.15 850 25.1 -15.5 4.2 56 -22.4 -8.3
05:15 1021 30.15 850 25.1 -15.4 4.3 60 -21.5 -6.7
05:20 1021 30.15 850 25.1 -15.6 3.9 59 -22 -7.6
05:25 1021 30.15 850 25.1 -15.9 3.5 58 -22.3 -8.2
05:30 1021 30.15 850 25.1 -15.9 3.4 56 -22.7 -8.9
05:35 1021 30.15 850 25.1 -15.6 4 53 -23 -9.5
05:40 1021 30.15 850 25.1 -14.7 5.6 50 -23 -9.4
05:45 1021 30.15 850 25.1 -14.6 5.7 51 -22.7 -8.8
05:50 1021 30.15 850 25.1 -14.4 6.1 49 -22.9 -9.2
05:55 1021 30.15 850 25.1 -14.2 6.5 49 -22.8 -9
06:00 1021 30.15 850 25.1 -14.2 6.4 50 -22.4 -8.4
06:05 1021 30.15 850 25.1 -14.7 5.6 52 -22.5 -8.4
06:10 1021 30.15 850 25.1 -14.5 5.8 51 -22.6 -8.6
06:15 1021 30.15 850 25.1 -14.4 6 51 -22.4 -8.3
06:20 1021 30.15 850 25.1 -15 5 53 -22.5 -8.5
06:25 1021 30.15 850 25.1 -15.1 4.8 55 -22.3 -8.2
06:30 1021 30.15 850 25.1 -15.4 4.2 55 -22.5 -8.5
06:35 1021 30.15 850 25.1 -15.6 3.9 56 -22.6 -8.7
06:40 1021 30.15 850 25.1 -15.5 4.2 54 -22.8 -9.1
06:45 1021 30.15 850 25.1 -15.2 4.7 54 -22.5 -8.5
06:50 1021 30.15 850 25.1 -15.2 4.6 53 -22.7 -8.8
06:55 1021 30.15 850 25.1 -15.3 4.5 54 -22.6 -8.7
07:00 1021 30.15 850 25.1 -14.7 5.6 52 -22.5 -8.5
07:05 1021 30.15 850 25.1 -14.1 6.7 51 -22.2 -7.9
07:10 1021 30.15 850 25.1 -14.3 6.4 53 -21.8 -7.2
07:15 1021 30.15 850 25.1 -14.9 5.1 56 -21.9 -7.4
07:20 1021 30.15 850 25.1 -15.6 3.9 57 -22.2 -8
07:25 1021 30.15 850 25.1 -16.2 2.8 59 -22.5 -8.6
07:30 1021 30.15 850 25.1 -16.3 2.7 60 -22.4 -8.4
07:35 1021 30.15 851 25.13 -16 3.3 63 -21.5 -6.6
07:40 1021 30.15 851 25.13 -15.7 3.7 58 -22.1 -7.8
07:45 1021 30.15 851 25.13 -16.2 2.9 62 -21.8 -7.2
07:50 1021 30.15 851 25.13 -16.1 3 60 -22.2 -7.9
07:55 1021 30.15 851 25.13 -16.3 2.8 61 -22.1 -7.7
08:00 1021 30.15 851 25.13 -16.4 2.4 62 -22.2 -7.9
08:05 1022 30.18 851 25.13 -16.4 2.4 62 -22.1 -7.8
08:10 1022 30.18 851 25.13 -16.7 1.9 63 -22.2 -7.9
08:15 1022 30.18 851 25.13 -17.1 1.2 65 -22.3 -8.2
08:20 1022 30.18 851 25.13 -17.5 0.5 65 -22.5 -8.6
08:25 1022 30.18 851 25.13 -17.5 0.6 64 -22.7 -8.8
08:30 1022 30.18 851 25.13 -17.1 1.2 63 -22.6 -8.7
08:35 1022 30.18 851 25.13 -17 1.4 62 -22.6 -8.6
08:40 1022 30.18 851 25.13 -16.2 2.9 58 -22.7 -8.9
08:45 1022 30.18 851 25.13 -15 5 54 -22.3 -8.2
08:50 1022 30.18 851 25.13 -14.7 5.6 54 -22 -7.6
08:55 1022 30.18 851 25.13 -14.5 5.9 54 -22 -7.6
09:00 1022 30.18 851 25.13 -14.6 5.8 56 -21.6 -6.9
09:05 1022 30.18 851 25.13 -14.3 6.4 54 -21.7 -7
09:10 1022 30.18 851 25.13 -14.5 5.9 55 -21.7 -7
09:15 1022 30.18 852 25.16 -14.7 5.6 56 -21.7 -7.1
09:20 1022 30.18 852 25.16 -14.3 6.2 53 -22 -7.7
09:25 1022 30.18 852 25.16 -14 6.8 51 -22 -7.6
09:30 1022 30.18 852 25.16 -13.9 7 54 -21.3 -6.4
09:35 1022 30.18 852 25.16 -15 5 55 -22.1 -7.8
09:40 1022 30.18 852 25.16 -15.1 4.8 56 -22 -7.7
09:45 1022 30.18 852 25.16 -14.8 5.3 53 -22.4 -8.3
09:50 1023 30.21 852 25.16 -13.6 7.4 49 -22.2 -7.9
09:55 1022 30.18 852 25.16 -13 8.6 48 -22 -7.5
10:00 1022 30.18 852 25.16 -12.9 8.8 48 -21.7 -7
10:05 1022 30.18 852 25.16 -12.8 9 49 -21.3 -6.4
10:10 1022 30.18 852 25.16 -12.4 9.7 48 -21.2 -6.2
10:15 1022 30.18 852 25.16 -12.3 9.8 48 -21.3 -6.4
10:20 1022 30.18 851 25.13 -12.2 10 47 -21.2 -6.2
10:25 1022 30.18 851 25.13 -11.4 11.4 45 -21.2 -6.2
10:30 1022 30.18 851 25.13 -11.7 10.9 46 -21.3 -6.3
10:35 1022 30.18 851 25.13 -11.9 10.6 45 -21.6 -6.8
10:40 1022 30.18 851 25.13 -11.5 11.3 43 -21.7 -7
10:45 1022 30.18 851 25.13 -11 12.2 44 -20.9 -5.7
10:50 1022 30.18 851 25.13 -10.5 13.2 41 -21.2 -6.2
10:55 1022 30.18 851 25.13 -9.6 14.6 39 -21.2 -6.2
11:00 1022 30.18 851 25.13 -9.4 15 38 -21.2 -6.1
11:05 1022 30.18 851 25.13 -9.3 15.2 35 -22.2 -7.9
11:10 1022 30.18 851 25.13 -9 15.8 34 -22.3 -8.1
11:15 1022 30.18 851 25.13 -8.8 16.3 34 -21.9 -7.3
11:20 1022 30.18 851 25.13 -8.9 15.9 37 -21.3 -6.3
11:25 1022 30.18 851 25.13 -9.1 15.7 36 -21.7 -7.1
11:30 1021 30.15 851 25.13 -9.1 15.6 36 -21.6 -6.9
11:35 1021 30.15 851 25.13 -9.1 15.6 34 -22.3 -8.2
11:40 1021 30.15 851 25.13 -9.2 15.5 33 -22.6 -8.6
11:45 1021 30.15 851 25.13 -8.8 16.1 36 -21.3 -6.3
11:50 1021 30.15 850 25.1 -8.3 17.1 33 -22.1 -7.7
11:55 1021 30.15 851 25.13 -7.5 18.4 33 -21.3 -6.3
12:00 1021 30.15 850 25.1 -7.1 19.2 32 -21.1 -6.1
12:05 1021 30.15 850 25.1 -7.3 18.9 34 -20.8 -5.4
12:10 1021 30.15 850 25.1 -7 19.4 33 -20.8 -5.5
12:15 1021 30.15 850 25.1 -6.6 20 32 -20.8 -5.4
12:20 1021 30.15 850 25.1 -6.9 19.6 33 -20.6 -5.1
12:25 1021 30.15 850 25.1 -6.8 19.7 36 -19.6 -3.3
12:30 1021 30.15 850 25.1 -7.1 19.2 37 -19.6 -3.3
12:35 1021 30.15 850 25.1 -7.1 19.2 34 -20.6 -5
12:40 1021 30.15 850 25.1 -7.2 19 33 -20.8 -5.5
12:45 1021 30.15 850 25.1 -6.7 20 33 -20.3 -4.6
12:50 1021 30.15 850 25.1 -6.7 20 33 -20.3 -4.5
12:55 1021 30.15 850 25.1 -7.1 19.3 35 -19.9 -3.9
13:00 1020 30.12 850 25.1 -7.7 18.1 39 -19.4 -3
13:05 1020 30.12 850 25.1 -8.2 17.2 39 -19.8 -3.7
13:10 1020 30.12 850 25.1 -7.7 18.1 36 -20.3 -4.5
13:15 1020 30.12 850 25.1 -7.7 18.2 37 -20.1 -4.2
13:20 1020 30.12 850 25.1 -8.5 16.8 39 -20 -4.1
13:25 1020 30.12 849 25.07 -7.8 17.9 36 -20.4 -4.8
13:30 1020 30.12 849 25.07 -8 17.6 40 -19.5 -3.1
13:35 1020 30.12 849 25.07 -7.6 18.3 40 -19 -2.2
13:40 1020 30.12 849 25.07 -7.7 18.2 41 -18.9 -2.1
13:45 1020 30.12 849 25.07 -8.1 17.4 41 -19.2 -2.5
13:50 1020 30.12 849 25.07 -8.4 16.8 40 -19.7 -3.5
13:55 1019 30.09 849 25.07 -8.5 16.8 40 -19.8 -3.6
14:00 1019 30.09 849 25.07 -7.8 18.1 36 -20.2 -4.4
14:05 1019 30.09 849 25.07 -7.5 18.5 35 -20.4 -4.7
14:10 1019 30.09 848 25.04 -7.1 19.3 34 -20.5 -5
14:15 1019 30.09 848 25.04 -6.8 19.7 33 -20.6 -5.1
14:20 1019 30.09 848 25.04 -6.6 20.1 32 -20.7 -5.2
14:25 1019 30.09 848 25.04 -7.1 19.2 35 -20.3 -4.5
14:30 1019 30.09 848 25.04 -7.4 18.7 34 -20.8 -5.4
14:35 1019 30.09 848 25.04 -7.7 18.2 36 -20.5 -4.8
14:40 1019 30.09 848 25.04 -7.6 18.3 35 -20.6 -5.1
14:45 1019 30.09 848 25.04 -7.7 18.2 33 -21.2 -6.2
14:50 1019 30.09 848 25.04 -8.1 17.4 35 -21.1 -5.9
14:55 1019 30.09 848 25.04 -7.9 17.8 33 -21.5 -6.6
15:00 1018 30.06 848 25.04 -7.6 18.3 32 -21.6 -6.8
15:05 1019 30.09 848 25.04 -7.2 19 31 -21.7 -7.1
15:10 1018 30.06 848 25.04 -6.4 20.5 28 -22.1 -7.8
15:15 1018 30.06 848 25.04 -6 21.3 29 -21.2 -6.1
15:20 1018 30.06 848 25.04 -5.9 21.4 29 -21.3 -6.3
15:25 1018 30.06 848 25.04 -6.2 20.8 31 -20.9 -5.7
15:30 1018 30.06 848 25.04 -6.1 21.1 31 -20.5 -4.9
15:35 1018 30.06 847 25.01 -6.3 20.6 32 -20.5 -5
15:40 1018 30.06 847 25.01 -6.4 20.4 33 -20.2 -4.3
15:45 1018 30.06 847 25.01 -6.2 20.8 34 -19.6 -3.3
15:50 1018 30.06 847 25.01 -6.3 20.7 33 -20.2 -4.3
15:55 1018 30.06 847 25.01 -6.4 20.4 34 -19.7 -3.5
16:00 1018 30.06 847 25.01 -6.6 20.1 35 -19.6 -3.3
16:05 1018 30.06 847 25.01 -7 19.4 34 -20.5 -4.9
16:10 1018 30.06 847 25.01 -7.2 19 33 -21 -5.8
16:15 1018 30.06 847 25.01 -7.7 18.1 34 -20.9 -5.7
16:20 1018 30.06 847 25.01 -7.7 18.1 34 -21 -5.8
16:25 1018 30.06 847 25.01 -7.8 18.1 36 -20.5 -5
16:30 1018 30.06 847 25.01 -7.9 17.8 36 -20.5 -4.9
16:35 1018 30.06 847 25.01 -7.8 18 35 -20.8 -5.4
16:40 1017 30.03 847 25.01 -8 17.5 38 -20 -4
16:45 1017 30.03 847 25.01 -8.4 16.9 40 -19.8 -3.6
16:50 1017 30.03 847 25.01 -9.1 15.5 43 -19.7 -3.4
16:55 1017 30.03 847 25.01 -9.6 14.7 42 -20.2 -4.4
17:00 1017 30.03 846 24.98 -9.8 14.4 43 -20.1 -4.2
17:05 1017 30.03 846 24.98 -9.8 14.3 44 -19.8 -3.7
17:10 1017 30.03 846 24.98 -10.3 13.5 44 -20.2 -4.4
17:15 1017 30.03 846 24.98 -10.3 13.4 42 -21 -5.9
17:20 1017 30.03 846 24.98 -10.2 13.6 47 -19.5 -3.1
17:25 1017 30.03 846 24.98 -11.1 12.1 50 -19.6 -3.2
17:30 1017 30.03 846 24.98 -11.3 11.8 51 -19.4 -3
17:35 1017 30.03 846 24.98 -11.5 11.3 53 -19.3 -2.8
17:40 1017 30.03 846 24.98 -11.7 10.9 52 -19.7 -3.5
17:45 1017 30.03 846 24.98 -11.7 11 56 -18.9 -1.9
17:50 1017 30.03 846 24.98 -11.6 11.1 53 -19.3 -2.8
17:55 1017 30.03 846 24.98 -12 10.4 55 -19.3 -2.8
18:00 1017 30.03 846 24.98 -12.7 9.1 57 -19.5 -3.2
18:05 1016 30 846 24.98 -13.6 7.6 60 -19.8 -3.7
18:10 1016 30 846 24.98 -13.9 7.1 60 -20.1 -4.2
18:15 1016 30 845 24.95 -13.6 7.5 58 -20.3 -4.5
18:20 1016 30 845 24.95 -13.5 7.7 55 -20.7 -5.2
18:25 1016 30 846 24.98 -13 8.7 53 -20.7 -5.3
18:30 1016 30 846 24.98 -12.7 9.1 51 -20.9 -5.6
18:35 1016 30 846 24.98 -12.5 9.5 51 -20.7 -5.3
18:40 1016 30 846 24.98 -12.5 9.5 51 -20.7 -5.3
18:45 1016 30 845 24.95 -12.9 8.7 52 -20.9 -5.5
18:50 1016 30 845 24.95 -12.8 8.9 49 -21.4 -6.5
18:55 1016 30 846 24.98 -12.6 9.3 50 -21.1 -5.9
19:00 1016 30 846 24.98 -12.4 9.6 52 -20.5 -4.9
19:05 1016 30 846 24.98 -12.3 9.8 50 -20.7 -5.3
19:10 1016 30 845 24.95 -11.9 10.6 51 -20 -4
19:15 1016 30 845 24.95 -12.6 9.4 54 -20.1 -4.1
19:20 1016 30 845 24.95 -12.8 9 50 -21.2 -6.1
19:25 1016 30 845 24.95 -11.9 10.5 48 -20.9 -5.6
19:30 1016 30 845 24.95 -12.3 9.9 50 -20.8 -5.5
19:35 1016 30 845 24.95 -12.6 9.4 53 -20.2 -4.3
19:40 1016 30 845 24.95 -13.4 7.9 58 -19.9 -3.9
19:45 1016 30 845 24.95 -13.9 7 59 -20.3 -4.6
19:50 1016 30 845 24.95 -13.6 7.5 55 -20.8 -5.5
19:55 1016 30 845 24.95 -13.5 7.6 55 -20.8 -5.5
20:00 1016 30 845 24.95 -14.2 6.5 55 -21.3 -6.4
20:05 1015 29.97 845 24.95 -13.5 7.6 52 -21.5 -6.6
20:10 1015 29.97 844 24.92 -13 8.6 49 -21.6 -6.9
20:15 1015 29.97 844 24.92 -12.5 9.4 47 -21.6 -7
20:20 1015 29.97 844 24.92 -12.4 9.7 46 -21.7 -7.1
20:25 1015 29.97 844 24.92 -12.3 9.9 46 -21.6 -6.8
20:30 1015 29.97 844 24.92 -12.9 8.8 50 -21.3 -6.3
20:35 1015 29.97 844 24.92 -13.4 7.9 50 -21.7 -7
20:40 1015 29.97 844 24.92 -13.3 8 51 -21.6 -6.8
20:45 1014 29.94 844 24.92 -13.6 7.5 54 -21.1 -6
20:50 1014 29.94 844 24.92 -13 8.6 53 -20.7 -5.2
20:55 1014 29.94 843 24.89 -13 8.7 53 -20.7 -5.3
21:00 1014 29.94 843 24.89 -12.9 8.8 52 -20.8 -5.5
21:05 1014 29.94 843 24.89 -13 8.7 53 -20.7 -5.3
21:10 1014 29.94 843 24.89 -12.9 8.8 51 -21 -5.8
21:15 1014 29.94 843 24.89 -12.6 9.4 50 -21 -5.8
21:20 1014 29.94 843 24.89 -12.3 9.9 48 -21.1 -5.9
21:25 1014 29.94 843 24.89 -12.2 10.1 49 -20.9 -5.7
21:30 1014 29.94 843 24.89 -12.1 10.2 49 -20.8 -5.5
21:35 1014 29.94 843 24.89 -12.2 10 49 -21 -5.8
21:40 1014 29.94 843 24.89 -12.4 9.8 49 -21 -5.8
21:45 1014 29.94 843 24.89 -12.5 9.5 50 -21 -5.8
21:50 1013 29.91 843 24.89 -12.7 9.2 51 -20.9 -5.6
21:55 1013 29.91 842 24.86 -12.7 9.1 50 -21.1 -6
22:00 1013 29.91 842 24.86 -12.6 9.3 49 -21.2 -6.2
22:05 1013 29.91 842 24.86 -12.3 9.8 49 -21.1 -6
22:10 1012 29.88 842 24.86 -12.7 9.2 51 -21 -5.7
22:15 1012 29.88 841 24.83 -13.3 8.2 52 -21.2 -6.2
22:20 1012 29.88 841 24.83 -13 8.7 51 -21.2 -6.2
22:25 1012 29.88 841 24.83 -12.6 9.3 50 -21.1 -5.9
22:30 1012 29.88 841 24.83 -12.2 10.1 48 -21.1 -6
22:35 1012 29.88 841 24.83 -12 10.4 48 -20.8 -5.5
22:40 1012 29.88 841 24.83 -11.9 10.5 47 -21.1 -5.9
22:45 1012 29.88 841 24.83 -11.9 10.7 46 -21.4 -6.5
22:50 1012 29.88 841 24.83 -11.4 11.5 45 -21.1 -6
22:55 1012 29.88 841 24.83 -11.2 11.9 43 -21.3 -6.4
23:00 1012 29.88 841 24.83 -10.9 12.4 43 -21.2 -6.1
23:05 1012 29.88 841 24.83 -10.7 12.8 41 -21.4 -6.6
23:10 1012 29.88 841 24.83 -10.5 13.2 42 -21 -5.7
23:15 1012 29.88 841 24.83 -10.7 12.7 44 -20.8 -5.5
23:20 1012 29.88 841 24.83 -11.2 11.8 45 -21 -5.7
23:25 1012 29.88 841 24.83 -11.3 11.6 44 -21.3 -6.3
23:30 1012 29.88 841 24.83 -11.1 12.1 43 -21.2 -6.2
23:35 1012 29.88 841 24.83 -10.9 12.3 43 -21.1 -6
23:40 1012 29.88 841 24.83 -11.4 11.5 48 -20.4 -4.6
23:45 1012 29.88 841 24.83 -11.3 11.7 47 -20.4 -4.7
23:50 1011 29.85 841 24.83 -10.9 12.3 44 -21 -5.8
23:55 1011 29.85 840 24.81 -10.7 12.8 44 -20.8 -5.5
24:00 1011 29.85 840 24.81 -11 12.1 45 -20.8 -5.4